createdAt,value
2018-12-06T00:00:10.597Z,95601.77
2018-12-06T00:02:41.417Z,95592.68
2018-12-06T00:05:12.338Z,95592.91
2018-12-06T00:08:22.567Z,95591.72
2018-12-06T00:10:53.493Z,95571.52
2018-12-06T00:13:24.405Z,95585.71
2018-12-06T00:15:55.333Z,95587.63
2018-12-06T00:18:26.534Z,95591.53
2018-12-06T00:20:57.397Z,95591.88
2018-12-06T00:23:28.275Z,95589.46
2018-12-06T00:25:59.174Z,95589.31
2018-12-06T00:28:29.966Z,95587.28
2018-12-06T00:31:00.917Z,95589.77
2018-12-06T00:33:31.793Z,95588.86
2018-12-06T00:36:02.726Z,95595.75
2018-12-06T00:38:33.555Z,95598.86
2018-12-06T00:41:04.473Z,95591.70
2018-12-06T00:43:37.073Z,95588.33
2018-12-06T00:46:07.973Z,95593.92
2018-12-06T00:48:38.881Z,95596.02
2018-12-06T00:51:09.794Z,95598.67
2018-12-06T00:53:40.676Z,95602.91
2018-12-06T00:56:11.567Z,95599.94
2018-12-06T00:58:42.415Z,95600.47
2018-12-06T01:01:13.393Z,95602.72
2018-12-06T01:03:44.428Z,95605.50
2018-12-06T01:06:15.374Z,95613.67
2018-12-06T01:08:46.295Z,95612.53
2018-12-06T01:11:17.354Z,95618.67
2018-12-06T01:13:48.366Z,95621.09
2018-12-06T01:16:19.334Z,95618.54
2018-12-06T01:18:50.246Z,95617.75
2018-12-06T01:21:21.173Z,95617.06
2018-12-06T01:23:52.006Z,95618.58
2018-12-06T01:26:23.077Z,95619.03
2018-12-06T01:28:54.015Z,95612.95
2018-12-06T01:31:25.154Z,95617.08
2018-12-06T01:33:56.203Z,95618.48
2018-12-06T01:36:27.638Z,95622.77
2018-12-06T01:38:58.674Z,95621.75
2018-12-06T01:41:30.415Z,95617.33
2018-12-06T01:44:01.714Z,95624.23
2018-12-06T01:46:32.654Z,95631.14
2018-12-06T01:49:03.495Z,95631.03
2018-12-06T01:51:34.527Z,95632.05
2018-12-06T01:54:05.454Z,95635.45
2018-12-06T01:56:36.367Z,95635.33
2018-12-06T01:59:07.453Z,95636.89
2018-12-06T02:01:38.886Z,95627.67
2018-12-06T02:04:10.033Z,95634.34
2018-12-06T02:06:41.025Z,95635.09
2018-12-06T02:09:14.245Z,95635.59
2018-12-06T02:11:46.053Z,95630.28
2018-12-06T02:14:17.113Z,95629.86
2018-12-06T02:16:48.255Z,95623.94
2018-12-06T02:19:19.317Z,95626.82
2018-12-06T02:21:50.596Z,95621.03
2018-12-06T02:24:21.802Z,95616.36
2018-12-06T02:26:52.982Z,95611.80
2018-12-06T02:29:26.182Z,95610.52
2018-12-06T02:31:57.404Z,95608.21
2018-12-06T02:34:28.522Z,95608.84
2018-12-06T02:36:59.724Z,95605.59
2018-12-06T02:39:30.867Z,95604.61
2018-12-06T02:42:01.974Z,95605.86
2018-12-06T02:44:33.179Z,95600.20
2018-12-06T02:47:04.318Z,95604.58
2018-12-06T02:49:35.409Z,95611.31
2018-12-06T02:52:06.583Z,95613.70
2018-12-06T02:54:37.683Z,95614.42
2018-12-06T02:57:08.803Z,95606.99
2018-12-06T02:59:39.904Z,95608.59
2018-12-06T03:02:11.165Z,95602.75
2018-12-06T03:04:42.383Z,95600.95
2018-12-06T03:07:13.526Z,95610.66
2018-12-06T03:09:46.236Z,95617.92
2018-12-06T03:12:17.742Z,95617.27
2018-12-06T03:14:48.602Z,95623.02
2018-12-06T03:17:20.218Z,95622.13
2018-12-06T03:19:51.104Z,95613.31
2018-12-06T03:22:21.975Z,95604.29
2018-12-06T03:24:52.844Z,95605.34
2018-12-06T03:27:24.099Z,95599.19
2018-12-06T03:29:55.322Z,95593.02
2018-12-06T03:32:26.560Z,95588.40
2018-12-06T03:34:57.683Z,95585.85
2018-12-06T03:37:28.575Z,95596.55
2018-12-06T03:39:59.509Z,95599.30
2018-12-06T03:42:30.446Z,95606.55
2018-12-06T03:45:01.437Z,95606.25
2018-12-06T03:47:32.346Z,95603.48
2018-12-06T03:50:03.350Z,95613.83
2018-12-06T03:52:34.439Z,95613.22
2018-12-06T03:55:06.200Z,95619.89
2018-12-06T03:57:37.539Z,95619.44
2018-12-06T04:00:09.055Z,95616.66
2018-12-06T04:02:41.126Z,95619.44
2018-12-06T04:05:13.091Z,95615.08
2018-12-06T04:07:44.016Z,95620.38
2018-12-06T04:10:15.016Z,95623.32
2018-12-06T04:12:46.146Z,95621.14
2018-12-06T04:15:17.063Z,95625.61
2018-12-06T04:17:48.397Z,95636.77
2018-12-06T04:20:19.324Z,95637.65
2018-12-06T04:22:50.846Z,95641.16
2018-12-06T04:25:21.744Z,95638.53
2018-12-06T04:27:52.725Z,95627.31
2018-12-06T04:30:25.293Z,95620.38
2018-12-06T04:32:56.501Z,95624.11
2018-12-06T04:35:27.550Z,95618.74
2018-12-06T04:37:58.667Z,95624.08
2018-12-06T04:40:29.740Z,95620.38
2018-12-06T04:43:00.767Z,95614.27
2018-12-06T04:45:31.716Z,95618.03
2018-12-06T04:48:02.710Z,95606.48
2018-12-06T04:50:33.777Z,95590.82
2018-12-06T04:53:04.681Z,95592.42
2018-12-06T04:55:35.705Z,95584.02
2018-12-06T04:58:06.867Z,95578.78
2018-12-06T05:00:37.762Z,95580.72
2018-12-06T05:03:08.879Z,95577.41
2018-12-06T05:05:39.797Z,95576.07
2018-12-06T05:08:10.805Z,95582.22
2018-12-06T05:10:42.480Z,95581.70
2018-12-06T05:13:14.207Z,95586.14
2018-12-06T05:15:45.296Z,95593.79
2018-12-06T05:18:16.243Z,95593.10
2018-12-06T05:20:47.126Z,95591.38
2018-12-06T05:23:18.018Z,95596.77
2018-12-06T05:25:49.044Z,95592.42
2018-12-06T05:28:19.878Z,95593.80
2018-12-06T05:30:50.802Z,95591.38
2018-12-06T05:33:21.718Z,95596.05
2018-12-06T05:35:52.637Z,95593.14
2018-12-06T05:38:23.706Z,95594.55
2018-12-06T05:40:54.584Z,95586.97
2018-12-06T05:43:25.570Z,95587.03
2018-12-06T05:45:56.448Z,95587.22
2018-12-06T05:48:27.354Z,95599.84
2018-12-06T05:50:58.186Z,95589.90
2018-12-06T05:53:29.303Z,95593.63
2018-12-06T05:56:00.219Z,95594.55
2018-12-06T05:58:31.163Z,95597.36
2018-12-06T06:01:02.086Z,95594.28
2018-12-06T06:03:33.071Z,95596.05
2018-12-06T06:06:03.976Z,95588.98
2018-12-06T06:08:34.906Z,95596.34
2018-12-06T06:11:05.887Z,95593.63
2018-12-06T06:13:36.866Z,95595.30
2018-12-06T06:16:07.679Z,95592.28
2018-12-06T06:18:38.650Z,95589.70
2018-12-06T06:21:09.686Z,95585.88
2018-12-06T06:23:40.572Z,95583.91
2018-12-06T06:26:11.519Z,95581.23
2018-12-06T06:28:42.494Z,95575.93
2018-12-06T06:31:13.401Z,95583.06
2018-12-06T06:33:44.338Z,95586.36
2018-12-06T06:36:15.170Z,95590.39
2018-12-06T06:38:46.079Z,95595.58
2018-12-06T06:41:16.980Z,95598.23
2018-12-06T06:43:47.871Z,95609.46
2018-12-06T06:46:18.718Z,95609.36
2018-12-06T06:48:49.687Z,95612.70
2018-12-06T06:51:20.528Z,95619.30
2018-12-06T06:53:51.393Z,95617.41
2018-12-06T06:56:22.286Z,95623.72
2018-12-06T06:58:53.178Z,95623.36
2018-12-06T07:01:24.118Z,95617.24
2018-12-06T07:03:55.086Z,95616.78
2018-12-06T07:06:25.861Z,95623.26
2018-12-06T07:08:56.746Z,95618.98
2018-12-06T07:11:27.859Z,95622.67
2018-12-06T07:13:58.830Z,95618.91
2018-12-06T07:16:29.761Z,95622.41
2018-12-06T07:19:00.786Z,95623.27
2018-12-06T07:21:31.781Z,95627.61
2018-12-06T07:24:02.817Z,95631.89
2018-12-06T07:26:33.838Z,95627.88
2018-12-06T07:29:04.903Z,95638.92
2018-12-06T07:31:35.774Z,95644.36
2018-12-06T07:34:06.961Z,95649.23
2018-12-06T07:36:37.798Z,95647.04
2018-12-06T07:39:09.878Z,95648.52
2018-12-06T07:41:40.860Z,95648.64
2018-12-06T07:44:11.838Z,95662.74
2018-12-06T07:46:43.124Z,95658.62
2018-12-06T07:49:15.329Z,95654.63
2018-12-06T07:51:46.225Z,95655.70
2018-12-06T07:54:17.331Z,95658.75
2018-12-06T07:56:48.326Z,95658.49
2018-12-06T07:59:19.213Z,95665.56
2018-12-06T08:01:50.262Z,95666.50
2018-12-06T08:04:21.138Z,95665.63
2018-12-06T08:06:52.013Z,95659.86
2018-12-06T08:09:23.062Z,95662.52
2018-12-06T08:11:54.231Z,95658.16
2018-12-06T08:14:25.271Z,95658.72
2018-12-06T08:16:56.227Z,95656.30
2018-12-06T08:19:27.177Z,95657.02
2018-12-06T08:21:58.094Z,95659.46
2018-12-06T08:24:29.206Z,95661.61
2018-12-06T08:27:00.031Z,95662.28
2018-12-06T08:29:31.127Z,95666.82
2018-12-06T08:32:02.774Z,95654.09
2018-12-06T08:34:33.785Z,95657.36
2018-12-06T08:37:04.744Z,95665.05
2018-12-06T08:39:35.748Z,95670.41
2018-12-06T08:42:06.899Z,95673.59
2018-12-06T08:44:38.301Z,95670.91
2018-12-06T08:47:09.187Z,95671.95
2018-12-06T08:49:40.146Z,95676.59
2018-12-06T08:52:11.162Z,95684.48
2018-12-06T08:54:42.054Z,95684.42
2018-12-06T08:57:13.170Z,95683.96
2018-12-06T08:59:44.366Z,95688.73
2018-12-06T09:02:15.494Z,95694.80
2018-12-06T09:04:46.794Z,95696.91
2018-12-06T09:07:18.005Z,95698.05
2018-12-06T09:09:49.093Z,95699.67
2018-12-06T09:12:20.267Z,95708.31
2018-12-06T09:14:51.543Z,95709.56
2018-12-06T09:17:23.011Z,95707.63
2018-12-06T09:19:54.125Z,95704.77
2018-12-06T09:22:25.248Z,95706.41
2018-12-06T09:24:56.589Z,95703.22
2018-12-06T09:27:27.772Z,95709.18
2018-12-06T09:29:59.011Z,95706.81
2018-12-06T09:32:30.149Z,95701.76
2018-12-06T09:35:01.356Z,95698.03
2018-12-06T09:37:32.475Z,95707.03
2018-12-06T09:40:04.425Z,95706.55
2018-12-06T09:42:35.599Z,95713.22
2018-12-06T09:45:08.388Z,95718.42
2018-12-06T09:47:39.645Z,95716.28
2018-12-06T09:50:11.065Z,95708.11
2018-12-06T09:52:42.133Z,95704.83
2018-12-06T09:55:13.957Z,95708.84
2018-12-06T09:57:44.903Z,95707.46
2018-12-06T10:00:18.274Z,95715.81
2018-12-06T10:02:49.315Z,95718.72
2018-12-06T10:05:20.414Z,95720.62
2018-12-06T10:07:51.326Z,95724.95
2018-12-06T10:10:22.365Z,95722.97
2018-12-06T10:12:53.432Z,95715.44
2018-12-06T10:15:59.849Z,95716.03
2018-12-06T10:18:35.727Z,95720.77
2018-12-06T10:21:06.779Z,95722.98
2018-12-06T10:23:39.318Z,95730.34
2018-12-06T10:26:10.647Z,95725.84
2018-12-06T10:28:41.854Z,95724.23
2018-12-06T10:31:12.867Z,95719.73
2018-12-06T10:33:44.336Z,95713.57
2018-12-06T10:36:20.534Z,95711.34
2018-12-06T10:38:51.703Z,95716.33
2018-12-06T10:41:23.102Z,95714.00
2018-12-06T10:43:54.106Z,95712.17
2018-12-06T10:46:25.109Z,95708.89
2018-12-06T10:48:56.034Z,95709.68
2018-12-06T10:51:42.793Z,95715.91
2018-12-06T10:54:13.673Z,95721.55
2018-12-06T10:56:44.654Z,95721.05
2018-12-06T10:59:15.545Z,95713.62
2018-12-06T11:01:52.404Z,95715.59
2018-12-06T11:04:25.375Z,95711.31
2018-12-06T11:06:56.249Z,95710.56
2018-12-06T11:09:27.423Z,95709.50
2018-12-06T11:11:58.426Z,95702.00
2018-12-06T11:14:29.287Z,95709.52
2018-12-06T11:17:00.413Z,95712.77
2018-12-06T11:19:31.283Z,95711.25
2018-12-06T11:22:02.551Z,95715.72
2018-12-06T11:24:33.431Z,95722.11
2018-12-06T11:27:04.523Z,95721.28
2018-12-06T11:29:35.428Z,95728.96
2018-12-06T11:32:06.449Z,95728.58
2018-12-06T11:34:38.886Z,95726.22
2018-12-06T11:37:10.386Z,95725.78
2018-12-06T11:39:41.223Z,95721.50
2018-12-06T11:42:12.205Z,95722.95
2018-12-06T11:44:43.237Z,95722.32
2018-12-06T11:47:14.205Z,95723.94
2018-12-06T11:49:45.088Z,95728.34
2018-12-06T11:52:16.382Z,95723.80
2018-12-06T11:54:47.323Z,95715.11
2018-12-06T11:57:18.205Z,95725.27
2018-12-06T11:59:49.127Z,95719.32
2018-12-06T12:02:20.340Z,95726.83
2018-12-06T12:04:52.093Z,95726.13
2018-12-06T12:07:23.030Z,95733.39
2018-12-06T12:09:53.931Z,95737.14
2018-12-06T12:12:24.885Z,95743.83
2018-12-06T12:14:56.069Z,95759.33
2018-12-06T12:17:27.020Z,95747.67
2018-12-06T12:19:58.325Z,95741.11
2018-12-06T12:22:29.341Z,95734.92
2018-12-06T12:25:00.317Z,95734.55
2018-12-06T12:27:31.317Z,95742.13
2018-12-06T12:30:02.185Z,95735.56
2018-12-06T12:32:33.133Z,95731.50
2018-12-06T12:35:04.321Z,95735.23
2018-12-06T12:37:35.350Z,95732.45
2018-12-06T12:40:09.385Z,95735.89
2018-12-06T12:42:40.379Z,95733.25
2018-12-06T12:45:11.347Z,95740.32
2018-12-06T12:47:42.276Z,95744.72
2018-12-06T12:50:13.199Z,95743.96
2018-12-06T12:52:44.365Z,95746.03
2018-12-06T12:55:15.297Z,95742.03
2018-12-06T12:57:46.226Z,95740.59
2018-12-06T13:00:17.133Z,95726.75
2018-12-06T13:02:48.160Z,95730.75
2018-12-06T13:05:19.154Z,95722.16
2018-12-06T13:07:50.105Z,95711.67
2018-12-06T13:10:20.973Z,95698.48
2018-12-06T13:12:51.877Z,95701.30
2018-12-06T13:15:22.835Z,95696.38
2018-12-06T13:17:53.748Z,95691.36
2018-12-06T13:20:24.689Z,95696.03
2018-12-06T13:22:55.717Z,95699.62
2018-12-06T13:25:26.571Z,95704.17
2018-12-06T13:27:57.878Z,95699.30
2018-12-06T13:30:28.885Z,95696.38
2018-12-06T13:32:59.940Z,95695.09
2018-12-06T13:35:30.804Z,95695.17
2018-12-06T13:38:01.765Z,95701.25
2018-12-06T13:40:32.647Z,95707.76
2018-12-06T13:43:03.640Z,95702.14
2018-12-06T13:45:34.582Z,95702.05
2018-12-06T13:48:06.250Z,95707.48
2018-12-06T13:50:37.115Z,95705.81
2018-12-06T13:53:08.054Z,95696.73
2018-12-06T13:55:38.994Z,95701.47
2018-12-06T13:58:09.954Z,95705.98
2018-12-06T14:00:41.720Z,95709.23
2018-12-06T14:03:12.897Z,95710.05
2018-12-06T14:05:43.819Z,95701.50
2018-12-06T14:08:14.765Z,95705.46
2018-12-06T14:10:45.848Z,95700.97
2018-12-06T14:13:23.675Z,95700.27
2018-12-06T14:15:53.829Z,95700.50
2018-12-06T14:18:25.077Z,95702.87
2018-12-06T14:20:55.946Z,95702.80
2018-12-06T14:23:26.938Z,95704.34
2018-12-06T14:25:58.077Z,95705.66
2018-12-06T14:28:29.140Z,95712.88
2018-12-06T14:30:59.976Z,95709.20
2018-12-06T14:33:31.025Z,95710.30
2018-12-06T14:36:01.965Z,95715.66
2018-12-06T14:38:32.901Z,95718.59
2018-12-06T14:41:04.274Z,95721.55
2018-12-06T14:43:35.801Z,95721.84
2018-12-06T14:46:07.480Z,95716.30
2018-12-06T14:48:39.286Z,95718.73
2018-12-06T14:51:10.478Z,95711.54
2018-12-06T14:53:41.525Z,95712.72
2018-12-06T14:56:12.465Z,95709.86
2018-12-06T14:58:43.450Z,95713.48
2018-12-06T15:01:14.422Z,95713.34
2018-12-06T15:03:45.467Z,95716.70
2018-12-06T15:06:18.225Z,95722.69
2018-12-06T15:08:50.245Z,95723.05
2018-12-06T15:11:22.050Z,95723.17
2018-12-06T15:13:53.466Z,95727.32
2018-12-06T15:16:24.441Z,95733.67
2018-12-06T15:18:55.629Z,95741.33
2018-12-06T15:21:29.322Z,95739.69
2018-12-06T15:24:00.361Z,95747.06
2018-12-06T15:26:32.534Z,95745.44
2018-12-06T15:29:03.508Z,95752.11
2018-12-06T15:31:37.496Z,95761.47
2018-12-06T15:34:09.027Z,95763.22
2018-12-06T15:36:40.172Z,95768.20
2018-12-06T15:39:12.167Z,95768.00
2018-12-06T15:41:44.319Z,95767.39
2018-12-06T15:44:19.081Z,95769.27
2018-12-06T15:46:52.468Z,95768.20
2018-12-06T15:49:24.399Z,95773.20
2018-12-06T15:54:34.885Z,95759.16
2018-12-06T15:57:05.941Z,95760.88
2018-12-06T15:59:37.098Z,95752.84
2018-12-06T16:02:08.000Z,95775.06
2018-12-06T16:04:39.075Z,95774.51
2018-12-06T16:07:10.090Z,95776.11
2018-12-06T16:09:41.200Z,95793.63
2018-12-06T16:12:12.131Z,95785.72
2018-12-06T16:14:43.104Z,95786.14
2018-12-06T16:17:14.413Z,95781.27
2018-12-06T16:19:45.475Z,95781.78
2018-12-06T16:22:17.305Z,95796.14
2018-12-06T16:24:48.591Z,95810.02
2018-12-06T16:27:19.786Z,95814.19
2018-12-06T16:29:51.599Z,95806.14
2018-12-06T16:32:22.965Z,95820.73
2018-12-06T16:34:53.968Z,95820.48
2018-12-06T16:37:25.286Z,95824.17
2018-12-06T16:39:56.415Z,95827.33
2018-12-06T16:42:27.504Z,95832.41
2018-12-06T16:44:58.611Z,95837.80
2018-12-06T16:47:29.764Z,95844.76
2018-12-06T16:50:01.017Z,95842.08
2018-12-06T16:52:32.050Z,95845.58
2018-12-06T16:55:04.200Z,95845.30
2018-12-06T16:57:35.860Z,95847.64
2018-12-06T17:00:12.237Z,95847.65
2018-12-06T17:02:43.617Z,95852.77
2018-12-06T17:05:15.083Z,95853.19
2018-12-06T17:07:52.663Z,95850.59
2018-12-06T17:10:26.796Z,95850.27
2018-12-06T17:12:58.389Z,95849.48
2018-12-06T17:15:30.093Z,95852.73
2018-12-06T17:18:01.622Z,95857.05
2018-12-06T17:20:33.193Z,95868.45
2018-12-06T17:23:04.665Z,95867.11
2018-12-06T17:25:36.351Z,95871.37
2018-12-06T17:28:08.190Z,95872.33
2018-12-06T17:30:39.699Z,95877.20
2018-12-06T17:33:11.264Z,95877.37
2018-12-06T17:35:42.829Z,95879.77
2018-12-06T17:38:15.016Z,95878.28
2018-12-06T17:40:47.319Z,95879.50
2018-12-06T17:43:19.018Z,95876.67
2018-12-06T17:45:50.767Z,95879.98
2018-12-06T17:48:22.400Z,95880.80
2018-12-06T17:50:54.125Z,95882.27
2018-12-06T17:53:26.039Z,95888.25
2018-12-06T17:55:58.069Z,95887.50
2018-12-06T17:58:33.205Z,95877.91
2018-12-06T18:01:04.947Z,95871.91
2018-12-06T18:03:36.342Z,95882.33
2018-12-06T18:06:08.454Z,95890.16
2018-12-06T18:08:40.085Z,95896.34
2018-12-06T18:11:11.560Z,95895.95
2018-12-06T18:13:43.944Z,95890.61
2018-12-06T18:16:19.560Z,95893.11
2018-12-06T18:18:49.079Z,95897.12
2018-12-06T18:21:21.339Z,95891.16
2018-12-06T18:23:52.916Z,95891.91
2018-12-06T18:26:29.293Z,95892.83
2018-12-06T18:29:01.172Z,95890.48
2018-12-06T18:31:32.850Z,95899.38
2018-12-06T18:34:04.405Z,95905.75
2018-12-06T18:36:36.143Z,95917.05
2018-12-06T18:39:11.521Z,95919.98
2018-12-06T18:41:43.184Z,95918.92
2018-12-06T18:44:15.027Z,95923.86
2018-12-06T18:46:46.823Z,95917.25
2018-12-06T18:49:18.890Z,95922.27
2018-12-06T18:51:52.631Z,95922.40
2018-12-06T18:54:24.769Z,95927.69
2018-12-06T18:56:56.383Z,95924.56
2018-12-06T18:59:27.819Z,95923.08
2018-12-06T19:02:00.217Z,95921.05
2018-12-06T19:04:36.442Z,95927.02
2018-12-06T19:07:08.402Z,95940.35
2018-12-06T19:09:40.169Z,95947.23
2018-12-06T19:12:12.782Z,95949.47
2018-12-06T19:14:44.427Z,95946.30
2018-12-06T19:17:16.307Z,95943.16
2018-12-06T19:19:47.991Z,95941.13
2018-12-06T19:22:24.968Z,95947.22
2018-12-06T19:24:56.530Z,95941.22
2018-12-06T19:27:29.476Z,95939.64
2018-12-06T19:30:01.106Z,95935.83
2018-12-06T19:32:33.536Z,95926.93
2018-12-06T19:35:05.561Z,95925.23
2018-12-06T19:37:37.918Z,95925.71
2018-12-06T19:40:09.895Z,95920.17
2018-12-06T19:42:47.143Z,95923.09
2018-12-06T19:45:20.432Z,95917.84
2018-12-06T19:47:52.087Z,95918.67
2018-12-06T19:50:23.890Z,95912.13
2018-12-06T19:52:55.470Z,95903.80
2018-12-06T19:55:27.179Z,95907.59
2018-12-06T19:57:59.050Z,95913.08
2018-12-06T20:00:30.694Z,95910.03
2018-12-06T20:03:02.570Z,95900.11
2018-12-06T20:05:34.220Z,95898.41
2018-12-06T20:08:06.345Z,95903.03
2018-12-06T20:10:38.383Z,95895.90
2018-12-06T20:13:10.254Z,95897.96
2018-12-06T20:15:42.129Z,95899.06
2018-12-06T20:18:14.011Z,95900.84
2018-12-06T20:20:46.111Z,95894.45
2018-12-06T20:23:17.974Z,95902.59
2018-12-06T20:25:49.990Z,95906.41
2018-12-06T20:28:26.359Z,95906.23
2018-12-06T20:30:56.940Z,95914.02
2018-12-06T20:33:28.973Z,95921.06
2018-12-06T20:36:01.767Z,95928.75
2018-12-06T20:38:33.880Z,95929.07
2018-12-06T20:41:05.821Z,95933.51
2018-12-06T20:43:37.848Z,95925.73
2018-12-06T20:46:09.676Z,95918.16
2018-12-06T20:48:43.394Z,95904.09
2018-12-06T20:51:15.295Z,95903.60
2018-12-06T20:53:47.182Z,95911.13
2018-12-06T20:56:19.947Z,95910.50
2018-12-06T20:58:52.785Z,95908.86
2018-12-06T21:01:24.730Z,95903.91
2018-12-06T21:03:56.868Z,95898.25
2018-12-06T21:06:29.395Z,95900.70
2018-12-06T21:09:03.210Z,95899.52
2018-12-06T21:11:34.938Z,95896.17
2018-12-06T21:14:07.825Z,95892.16
2018-12-06T21:16:39.638Z,95885.16
2018-12-06T21:19:12.183Z,95880.80
2018-12-06T21:21:44.227Z,95881.86
2018-12-06T21:24:16.598Z,95887.38
2018-12-06T21:26:50.165Z,95884.40
2018-12-06T21:29:22.280Z,95885.58
2018-12-06T21:31:54.125Z,95886.49
2018-12-06T21:34:25.951Z,95879.83
2018-12-06T21:36:57.713Z,95887.95
2018-12-06T21:39:29.489Z,95884.76
2018-12-06T21:42:01.248Z,95880.53
2018-12-06T21:44:32.976Z,95881.84
2018-12-06T21:47:04.648Z,95884.31
2018-12-06T21:49:36.727Z,95887.54
2018-12-06T21:52:08.673Z,95891.55
2018-12-06T21:54:41.622Z,95882.11
2018-12-06T21:57:13.244Z,95882.52
2018-12-06T21:59:45.924Z,95889.51
2018-12-06T22:02:27.550Z,95883.91
2018-12-06T22:04:59.094Z,95880.42
2018-12-06T22:07:30.330Z,95887.95
2018-12-06T22:10:01.673Z,95898.58
2018-12-06T22:12:33.321Z,95905.25
2018-12-06T22:15:04.628Z,95897.02
2018-12-06T22:17:35.604Z,95893.36
2018-12-06T22:20:07.240Z,95883.42
2018-12-06T22:22:38.191Z,95880.53
2018-12-06T22:25:09.181Z,95882.58
2018-12-06T22:27:40.113Z,95888.70
2018-12-06T22:30:11.824Z,95884.58
2018-12-06T22:32:42.869Z,95883.44
2018-12-06T22:35:14.124Z,95886.42
2018-12-06T22:37:45.932Z,95887.39
2018-12-06T22:40:16.960Z,95887.06
2018-12-06T22:42:48.070Z,95885.48
2018-12-06T22:46:28.167Z,95878.53
2018-12-06T22:48:59.101Z,95877.38
2018-12-06T22:51:30.046Z,95878.34
2018-12-06T22:54:00.941Z,95882.41
2018-12-06T22:56:31.901Z,95885.85
2018-12-06T22:59:02.797Z,95881.67
2018-12-06T23:01:38.772Z,95882.38
2018-12-06T23:04:10.266Z,95882.03
2018-12-06T23:06:41.224Z,95884.70
2018-12-06T23:09:12.272Z,95896.66
2018-12-06T23:11:43.291Z,95904.81
2018-12-06T23:14:14.225Z,95900.92
2018-12-06T23:16:45.716Z,95891.06
2018-12-06T23:19:16.849Z,95887.63
2018-12-06T23:21:47.948Z,95883.34
2018-12-06T23:24:19.058Z,95867.17
2018-12-06T23:26:50.276Z,95870.02
2018-12-06T23:29:21.385Z,95867.89
2018-12-06T23:31:52.518Z,95862.80
2018-12-06T23:34:23.612Z,95855.11
2018-12-06T23:36:54.716Z,95857.88
2018-12-06T23:39:25.819Z,95851.95
2018-12-06T23:41:56.987Z,95853.11
2018-12-06T23:44:28.108Z,95850.77
2018-12-06T23:46:59.305Z,95853.31
2018-12-06T23:49:30.445Z,95851.46
2018-12-06T23:52:01.684Z,95854.25
2018-12-06T23:54:32.754Z,95848.73
2018-12-06T23:57:03.906Z,95848.20
2018-12-06T23:59:35.051Z,95850.45
